createdAt,value
2022-08-24T00:00:42.250Z,46.00
2022-08-24T00:03:46.061Z,46.00
2022-08-24T00:06:47.840Z,46.10
2022-08-24T00:09:50.794Z,45.90
2022-08-24T00:12:52.791Z,45.90
2022-08-24T00:15:55.758Z,45.80
2022-08-24T00:18:57.827Z,45.80
2022-08-24T00:22:00.279Z,45.80
2022-08-24T00:25:02.233Z,45.80
2022-08-24T00:28:05.527Z,45.90
2022-08-24T00:31:08.209Z,45.80
2022-08-24T00:34:10.946Z,45.70
2022-08-24T00:37:13.054Z,45.70
2022-08-24T00:40:23.628Z,45.80
2022-08-24T00:43:26.427Z,45.70
2022-08-24T00:46:43.500Z,45.70
2022-08-24T00:49:57.911Z,45.70
2022-08-24T00:53:04.562Z,45.70
2022-08-24T00:56:14.522Z,45.70
2022-08-24T00:59:24.044Z,45.60
2022-08-24T01:02:31.141Z,45.60
2022-08-24T01:05:35.724Z,45.70
2022-08-24T01:08:37.522Z,45.60
2022-08-24T01:11:40.720Z,45.70
2022-08-24T01:14:43.076Z,45.60
2022-08-24T01:18:04.143Z,45.60
2022-08-24T01:21:30.229Z,45.60
2022-08-24T01:24:32.125Z,45.50
2022-08-24T01:27:36.248Z,45.50
2022-08-24T01:30:38.724Z,45.50
2022-08-24T01:33:41.260Z,45.50
2022-08-24T01:36:49.279Z,45.50
2022-08-24T01:39:55.551Z,45.40
2022-08-24T01:42:58.283Z,45.40
2022-08-24T01:46:00.327Z,45.40
2022-08-24T01:49:03.170Z,45.40
2022-08-24T01:52:07.027Z,45.40
2022-08-24T01:55:11.102Z,45.40
2022-08-24T01:58:13.187Z,45.40
2022-08-24T02:01:18.684Z,45.40
2022-08-24T02:04:22.951Z,45.40
2022-08-24T02:07:25.091Z,45.40
2022-08-24T02:10:27.514Z,45.30
2022-08-24T02:13:30.063Z,45.30
2022-08-24T02:16:31.919Z,45.30
2022-08-24T02:19:34.534Z,45.30
2022-08-24T02:22:36.338Z,45.30
2022-08-24T02:25:38.157Z,45.40
2022-08-24T02:28:41.139Z,45.30
2022-08-24T02:31:43.639Z,45.30
2022-08-24T02:34:46.704Z,45.30
2022-08-24T02:37:48.866Z,45.30
2022-08-24T02:40:51.817Z,45.30
2022-08-24T02:43:54.817Z,45.30
2022-08-24T02:46:56.856Z,45.20
2022-08-24T02:49:58.656Z,45.20
2022-08-24T02:53:00.750Z,45.20
2022-08-24T02:56:03.109Z,45.20
2022-08-24T02:59:06.871Z,45.20
2022-08-24T03:02:08.817Z,45.20
2022-08-24T03:05:11.717Z,45.20
2022-08-24T03:08:14.097Z,45.10
2022-08-24T03:11:16.477Z,45.10
2022-08-24T03:14:18.765Z,45.10
2022-08-24T03:17:20.676Z,45.00
2022-08-24T03:20:23.514Z,45.60
2022-08-24T03:23:25.842Z,45.00
2022-08-24T03:26:27.799Z,45.00
2022-08-24T03:29:32.959Z,45.10
2022-08-24T03:32:35.934Z,45.00
2022-08-24T03:35:39.639Z,45.00
2022-08-24T03:38:42.015Z,45.00
2022-08-24T03:41:44.055Z,44.90
2022-08-24T03:44:45.903Z,44.90
2022-08-24T03:47:48.599Z,44.90
2022-08-24T03:50:51.159Z,44.80
2022-08-24T03:53:54.140Z,44.80
2022-08-24T03:56:58.962Z,44.80
2022-08-24T04:00:01.925Z,44.80
2022-08-24T04:03:05.128Z,44.80
2022-08-24T04:06:08.332Z,44.80
2022-08-24T04:09:11.722Z,44.80
2022-08-24T04:12:15.991Z,44.80
2022-08-24T04:15:18.776Z,44.70
2022-08-24T04:18:20.654Z,44.60
2022-08-24T04:21:28.947Z,44.70
2022-08-24T04:24:31.948Z,44.60
2022-08-24T04:27:33.927Z,44.60
2022-08-24T04:30:39.415Z,44.60
2022-08-24T04:33:47.082Z,44.60
2022-08-24T04:36:55.880Z,45.20
2022-08-24T04:39:57.786Z,44.50
2022-08-24T04:43:02.939Z,44.60
2022-08-24T04:46:07.784Z,44.50
2022-08-24T04:49:09.635Z,44.50
2022-08-24T04:52:11.431Z,44.50
2022-08-24T04:55:16.020Z,44.50
2022-08-24T04:58:18.722Z,43.90
2022-08-24T05:01:23.483Z,44.60
2022-08-24T05:04:25.315Z,45.10
2022-08-24T05:07:27.422Z,45.40
2022-08-24T05:10:29.368Z,45.70
2022-08-24T05:13:36.470Z,46.00
2022-08-24T05:16:38.387Z,46.20
2022-08-24T05:19:40.415Z,46.60
2022-08-24T05:22:42.814Z,46.70
2022-08-24T05:25:44.653Z,47.00
2022-08-24T05:28:47.708Z,47.70
2022-08-24T05:31:49.781Z,47.30
2022-08-24T05:34:51.984Z,47.50
2022-08-24T05:37:53.793Z,47.70
2022-08-24T05:40:56.158Z,47.80
2022-08-24T05:44:00.959Z,48.00
2022-08-24T05:47:07.729Z,48.20
2022-08-24T05:50:09.563Z,48.20
2022-08-24T05:53:13.282Z,48.20
2022-08-24T05:56:18.773Z,48.40
2022-08-24T05:59:22.513Z,48.60
2022-08-24T06:02:24.576Z,48.80
2022-08-24T06:05:26.597Z,48.80
2022-08-24T06:08:28.495Z,48.90
2022-08-24T06:11:39.118Z,48.70
2022-08-24T06:14:47.438Z,48.90
2022-08-24T06:17:50.303Z,49.20
2022-08-24T06:20:52.492Z,49.20
2022-08-24T06:24:00.481Z,49.10
2022-08-24T06:27:20.910Z,49.40
2022-08-24T06:30:23.011Z,49.50
2022-08-24T06:33:37.371Z,49.30
2022-08-24T06:36:40.076Z,49.10
2022-08-24T06:39:42.098Z,48.80
2022-08-24T06:42:45.964Z,48.50
2022-08-24T06:45:58.677Z,48.30
2022-08-24T06:49:05.396Z,48.20
2022-08-24T06:52:13.274Z,48.00
2022-08-24T06:55:16.431Z,47.90
2022-08-24T06:58:18.717Z,47.80
2022-08-24T07:01:26.819Z,47.90
2022-08-24T07:04:29.091Z,47.60
2022-08-24T07:07:49.320Z,47.60
2022-08-24T07:10:51.542Z,47.50
2022-08-24T07:13:53.422Z,47.40
2022-08-24T07:16:55.449Z,47.50
2022-08-24T07:19:59.178Z,47.50
2022-08-24T07:23:41.007Z,47.40
2022-08-24T07:26:44.339Z,47.50
2022-08-24T07:29:56.303Z,47.50
2022-08-24T07:33:10.679Z,47.60
2022-08-24T07:36:21.983Z,47.60
2022-08-24T07:39:24.638Z,47.50
2022-08-24T07:42:31.787Z,47.30
2022-08-24T07:45:35.468Z,47.30
2022-08-24T07:48:37.745Z,47.30
2022-08-24T07:51:44.919Z,47.60
2022-08-24T07:54:49.506Z,47.30
2022-08-24T07:57:51.402Z,47.30
2022-08-24T08:00:53.308Z,47.20
2022-08-24T08:03:55.908Z,47.20
2022-08-24T08:06:58.033Z,47.40
2022-08-24T08:10:01.910Z,47.40
2022-08-24T08:13:05.181Z,47.50
2022-08-24T08:16:08.644Z,47.40
2022-08-24T08:19:11.361Z,47.40
2022-08-24T08:22:35.727Z,47.40
2022-08-24T08:26:04.131Z,47.40
2022-08-24T08:29:19.424Z,47.40
2022-08-24T08:32:21.954Z,47.30
2022-08-24T08:35:26.517Z,47.40
2022-08-24T08:38:28.539Z,47.30
2022-08-24T08:41:39.547Z,47.40
2022-08-24T08:45:16.562Z,47.40
2022-08-24T08:49:15.768Z,47.40
2022-08-24T08:52:32.513Z,47.50
2022-08-24T08:56:09.530Z,47.40
2022-08-24T08:59:38.903Z,47.40
2022-08-24T09:03:08.675Z,47.40
2022-08-24T09:06:37.077Z,47.40
2022-08-24T09:09:49.740Z,47.40
2022-08-24T09:13:24.936Z,47.50
2022-08-24T09:16:57.875Z,47.40
2022-08-24T09:20:12.398Z,47.50
2022-08-24T09:23:40.179Z,47.40
2022-08-24T09:26:59.131Z,47.40
2022-08-24T09:30:10.968Z,47.50
2022-08-24T09:33:22.712Z,47.40
2022-08-24T09:36:43.323Z,47.50
2022-08-24T09:40:17.545Z,47.50
2022-08-24T09:43:34.591Z,47.50
2022-08-24T09:46:45.386Z,47.40
2022-08-24T09:50:32.446Z,47.50
2022-08-24T09:53:43.024Z,47.50
2022-08-24T09:57:12.275Z,47.50
2022-08-24T10:00:34.599Z,47.50
2022-08-24T10:03:39.481Z,47.50
2022-08-24T10:07:17.186Z,47.50
2022-08-24T10:11:13.148Z,47.50
2022-08-24T10:14:52.577Z,47.50
2022-08-24T10:18:21.342Z,47.60
2022-08-24T10:21:58.524Z,47.50
2022-08-24T10:25:03.383Z,47.60
2022-08-24T10:28:39.362Z,47.60
2022-08-24T10:32:14.435Z,47.60
2022-08-24T10:35:18.601Z,47.60
2022-08-24T10:39:00.952Z,47.70
2022-08-24T10:42:37.800Z,47.50
2022-08-24T10:46:10.712Z,47.60
2022-08-24T10:49:21.207Z,47.50
2022-08-24T10:52:47.363Z,47.60
2022-08-24T10:56:09.351Z,47.60
2022-08-24T10:59:22.868Z,47.60
2022-08-24T11:02:39.371Z,47.60
2022-08-24T11:05:56.186Z,47.60
2022-08-24T11:09:06.269Z,47.60
2022-08-24T11:12:21.458Z,47.60
2022-08-24T11:15:27.941Z,47.60
2022-08-24T11:18:52.298Z,47.50
2022-08-24T11:21:57.522Z,47.40
2022-08-24T11:25:10.327Z,47.50
2022-08-24T11:28:24.932Z,47.50
2022-08-24T11:31:35.964Z,47.50
2022-08-24T11:34:39.756Z,47.50
2022-08-24T11:37:42.199Z,47.70
2022-08-24T11:40:50.903Z,47.60
2022-08-24T11:43:52.710Z,47.60
2022-08-24T11:47:19.767Z,47.60
2022-08-24T11:50:48.618Z,47.60
2022-08-24T11:54:19.804Z,47.50
2022-08-24T11:57:30.203Z,48.00
2022-08-24T12:01:08.283Z,47.40
2022-08-24T12:04:23.836Z,47.50
2022-08-24T12:07:40.945Z,47.50
2022-08-24T12:11:03.623Z,47.50
2022-08-24T12:14:10.984Z,47.60
2022-08-24T12:17:16.782Z,47.50
2022-08-24T12:20:33.033Z,47.50
2022-08-24T12:23:45.960Z,47.50
2022-08-24T12:26:51.643Z,47.50
2022-08-24T12:30:05.292Z,47.40
2022-08-24T12:33:13.040Z,47.50
2022-08-24T12:36:32.122Z,47.50
2022-08-24T12:40:11.148Z,47.50
2022-08-24T12:43:13.118Z,47.60
2022-08-24T12:46:20.514Z,47.60
2022-08-24T12:49:25.672Z,48.10
2022-08-24T12:52:42.558Z,47.50
2022-08-24T12:56:03.187Z,47.40
2022-08-24T12:59:30.619Z,47.50
2022-08-24T13:02:48.073Z,47.60
2022-08-24T13:05:56.246Z,47.50
2022-08-24T13:09:27.051Z,47.40
2022-08-24T13:12:43.686Z,47.50
2022-08-24T13:15:45.508Z,47.40
2022-08-24T13:19:10.528Z,47.40
2022-08-24T13:22:15.833Z,47.40
2022-08-24T13:25:57.940Z,47.40
2022-08-24T13:29:00.858Z,47.50
2022-08-24T13:32:02.887Z,47.50
2022-08-24T13:35:38.850Z,47.50
2022-08-24T13:39:05.741Z,47.60
2022-08-24T13:42:23.593Z,47.50
2022-08-24T13:46:01.252Z,47.50
2022-08-24T13:49:15.009Z,47.40
2022-08-24T13:52:48.172Z,47.50
2022-08-24T13:55:54.096Z,47.40
2022-08-24T13:59:11.417Z,47.50
2022-08-24T14:02:16.023Z,47.40
2022-08-24T14:05:47.459Z,47.40
2022-08-24T14:09:18.124Z,47.40
2022-08-24T14:12:32.119Z,47.40
2022-08-24T14:16:31.981Z,47.50
2022-08-24T14:19:34.084Z,47.50
2022-08-24T14:23:23.699Z,47.50
2022-08-24T14:26:37.997Z,47.50
2022-08-24T14:29:42.919Z,47.60
2022-08-24T14:32:59.871Z,47.50
2022-08-24T14:36:20.728Z,47.50
2022-08-24T14:39:40.954Z,47.50
2022-08-24T14:42:56.681Z,47.60
2022-08-24T14:46:09.450Z,47.50
2022-08-24T14:49:17.124Z,47.60
2022-08-24T14:52:22.233Z,47.50
2022-08-24T14:56:01.397Z,47.50
2022-08-24T14:59:05.900Z,47.50
2022-08-24T15:02:29.320Z,47.60
2022-08-24T15:05:34.860Z,47.60
2022-08-24T15:08:42.998Z,47.60
2022-08-24T15:11:47.374Z,47.50
2022-08-24T15:15:01.987Z,47.60
2022-08-24T15:18:21.947Z,47.50
2022-08-24T15:21:29.099Z,47.50
2022-08-24T15:24:47.119Z,47.50
2022-08-24T15:28:06.686Z,47.50
2022-08-24T15:31:11.136Z,47.50
2022-08-24T15:34:13.698Z,47.50
2022-08-24T15:37:29.359Z,47.50
2022-08-24T15:40:33.105Z,47.50
2022-08-24T15:43:38.582Z,47.50
2022-08-24T15:46:44.701Z,47.50
2022-08-24T15:49:55.172Z,47.50
2022-08-24T15:53:05.405Z,47.50
2022-08-24T15:56:25.662Z,47.50
2022-08-24T15:59:48.577Z,47.50
2022-08-24T16:02:50.446Z,47.50
2022-08-24T16:05:55.555Z,48.00
2022-08-24T16:08:58.940Z,47.50
2022-08-24T16:12:12.780Z,47.70
2022-08-24T16:15:19.322Z,47.50
2022-08-24T16:18:21.339Z,47.50
2022-08-24T16:21:41.816Z,47.50
2022-08-24T16:24:43.703Z,47.50
2022-08-24T16:28:00.500Z,47.50
2022-08-24T16:31:07.614Z,47.50
2022-08-24T16:34:30.003Z,47.50
2022-08-24T16:37:32.271Z,47.50
2022-08-24T16:40:36.310Z,47.50
2022-08-24T16:43:41.262Z,47.50
2022-08-24T16:46:43.028Z,47.50
2022-08-24T16:49:50.133Z,47.50
2022-08-24T16:52:51.943Z,47.50
2022-08-24T16:55:54.078Z,47.50
2022-08-24T16:58:56.223Z,47.50
2022-08-24T17:01:59.042Z,47.50
2022-08-24T17:05:01.047Z,47.50
2022-08-24T17:08:03.244Z,47.50
2022-08-24T17:11:05.501Z,47.50
2022-08-24T17:14:07.302Z,47.60
2022-08-24T17:17:13.285Z,47.50
2022-08-24T17:20:15.720Z,47.50
2022-08-24T17:23:17.519Z,47.50
2022-08-24T17:26:21.635Z,47.50
2022-08-24T17:29:24.805Z,47.40
2022-08-24T17:32:26.812Z,47.50
2022-08-24T17:35:28.683Z,47.50
2022-08-24T17:38:31.448Z,47.50
2022-08-24T17:41:34.602Z,47.40
2022-08-24T17:44:37.016Z,47.40
2022-08-24T17:47:39.946Z,47.30
2022-08-24T17:50:41.704Z,47.30
2022-08-24T17:53:43.482Z,47.20
2022-08-24T17:56:48.636Z,47.20
2022-08-24T17:59:50.699Z,47.70
2022-08-24T18:02:52.508Z,47.00
2022-08-24T18:05:54.536Z,46.90
2022-08-24T18:08:58.173Z,46.90
2022-08-24T18:12:00.603Z,46.70
2022-08-24T18:15:02.493Z,46.70
2022-08-24T18:18:08.509Z,46.80
2022-08-24T18:21:11.453Z,46.50
2022-08-24T18:24:13.269Z,46.50
2022-08-24T18:27:30.502Z,46.50
2022-08-24T18:30:34.455Z,46.40
2022-08-24T18:33:36.271Z,46.30
2022-08-24T18:36:38.197Z,46.00
2022-08-24T18:39:40.017Z,46.20
2022-08-24T18:42:42.448Z,46.30
2022-08-24T18:45:44.404Z,46.40
2022-08-24T18:48:46.247Z,46.30
2022-08-24T18:51:49.127Z,46.40
2022-08-24T18:54:51.325Z,46.40
2022-08-24T18:57:53.575Z,46.40
2022-08-24T19:00:55.460Z,46.50
2022-08-24T19:03:57.398Z,46.50
2022-08-24T19:06:59.269Z,46.50
2022-08-24T19:10:01.569Z,46.50
2022-08-24T19:13:08.740Z,46.50
2022-08-24T19:16:10.562Z,46.60
2022-08-24T19:19:12.420Z,46.60
2022-08-24T19:22:15.511Z,46.70
2022-08-24T19:25:24.552Z,46.70
2022-08-24T19:28:27.027Z,46.80
2022-08-24T19:31:29.422Z,46.80
2022-08-24T19:34:31.994Z,46.80
2022-08-24T19:37:33.846Z,46.80
2022-08-24T19:40:35.719Z,46.90
2022-08-24T19:44:01.314Z,46.90
2022-08-24T19:47:04.394Z,46.90
2022-08-24T19:50:08.271Z,46.90
2022-08-24T19:53:10.372Z,46.90
2022-08-24T19:56:12.386Z,47.00
2022-08-24T19:59:25.756Z,47.00
2022-08-24T20:02:27.633Z,47.00
2022-08-24T20:05:29.807Z,47.10
2022-08-24T20:08:31.741Z,47.00
2022-08-24T20:11:33.666Z,47.10
2022-08-24T20:14:37.547Z,47.20
2022-08-24T20:17:39.665Z,47.20
2022-08-24T20:20:42.223Z,47.20
2022-08-24T20:23:45.353Z,47.20
2022-08-24T20:26:47.239Z,47.20
2022-08-24T20:29:49.351Z,47.30
2022-08-24T20:32:51.130Z,47.20
2022-08-24T20:35:53.041Z,47.20
2022-08-24T20:38:57.903Z,47.80
2022-08-24T20:42:00.487Z,47.30
2022-08-24T20:45:02.620Z,47.30
2022-08-24T20:48:05.572Z,47.30
2022-08-24T20:51:07.605Z,47.30
2022-08-24T20:54:09.425Z,47.20
2022-08-24T20:57:16.764Z,47.30
2022-08-24T21:00:20.735Z,47.30
2022-08-24T21:03:22.588Z,47.30
2022-08-24T21:06:24.507Z,47.40
2022-08-24T21:09:26.440Z,47.30
2022-08-24T21:12:32.485Z,47.30
2022-08-24T21:15:34.605Z,47.40
2022-08-24T21:18:37.147Z,47.30
2022-08-24T21:21:42.234Z,47.40
2022-08-24T21:24:44.409Z,47.40
2022-08-24T21:27:48.225Z,47.40
2022-08-24T21:30:49.970Z,47.40
2022-08-24T21:34:10.796Z,47.50
2022-08-24T21:37:15.865Z,47.60
2022-08-24T21:40:17.679Z,47.60
2022-08-24T21:43:20.219Z,47.70
2022-08-24T21:46:32.501Z,47.60
2022-08-24T21:49:34.679Z,47.70
2022-08-24T21:52:37.189Z,47.70
2022-08-24T21:55:41.308Z,47.80
2022-08-24T21:58:43.164Z,47.70
2022-08-24T22:01:45.191Z,47.60
2022-08-24T22:04:47.807Z,47.60
2022-08-24T22:07:58.609Z,47.70
2022-08-24T22:11:00.389Z,47.60
2022-08-24T22:14:03.770Z,47.60
2022-08-24T22:17:05.632Z,47.60
2022-08-24T22:20:21.543Z,47.60
2022-08-24T22:23:24.787Z,47.60
2022-08-24T22:26:29.446Z,47.60
2022-08-24T22:29:31.278Z,47.60
2022-08-24T22:32:33.054Z,47.60
2022-08-24T22:35:45.411Z,47.60
2022-08-24T22:38:47.358Z,47.60
2022-08-24T22:41:49.112Z,47.60
2022-08-24T22:44:50.963Z,47.60
2022-08-24T22:47:52.903Z,47.60
2022-08-24T22:50:54.693Z,47.60
2022-08-24T22:53:57.043Z,47.60
2022-08-24T22:56:58.832Z,47.60
2022-08-24T23:00:01.346Z,47.60
2022-08-24T23:03:03.349Z,47.60
2022-08-24T23:06:06.031Z,47.60
2022-08-24T23:09:08.305Z,47.60
2022-08-24T23:12:13.993Z,47.50
2022-08-24T23:15:15.885Z,47.60
2022-08-24T23:18:36.213Z,47.50
2022-08-24T23:21:38.145Z,47.60
2022-08-24T23:24:41.726Z,47.60
2022-08-24T23:27:46.550Z,47.60
2022-08-24T23:30:51.211Z,47.60
2022-08-24T23:33:54.110Z,47.60
2022-08-24T23:36:56.047Z,47.60
2022-08-24T23:39:58.309Z,47.50
2022-08-24T23:43:00.158Z,47.60
2022-08-24T23:46:03.461Z,47.60
2022-08-24T23:49:06.281Z,47.50
2022-08-24T23:52:08.522Z,47.50
2022-08-24T23:55:27.644Z,47.60
2022-08-24T23:58:29.443Z,47.60
